createdAt,value
2019-02-10T00:02:39.778Z,5.90
2019-02-10T00:05:20.520Z,8.85
2019-02-10T00:08:01.163Z,3.80
2019-02-10T00:10:41.653Z,8.98
2019-02-10T00:13:22.292Z,6.90
2019-02-10T00:16:02.676Z,10.43
2019-02-10T00:18:43.803Z,12.28
2019-02-10T00:21:24.645Z,5.20
2019-02-10T00:24:05.320Z,14.28
2019-02-10T00:26:45.997Z,12.58
2019-02-10T00:29:26.927Z,11.90
2019-02-10T00:32:07.576Z,7.20
2019-02-10T00:34:48.511Z,9.55
2019-02-10T00:37:28.981Z,15.53
2019-02-10T00:40:09.999Z,13.10
2019-02-10T00:42:51.023Z,9.03
2019-02-10T00:45:31.865Z,16.48
2019-02-10T00:48:12.325Z,11.10
2019-02-10T00:50:52.943Z,11.78
2019-02-10T00:53:33.619Z,12.20
2019-02-10T00:56:14.360Z,11.80
2019-02-10T00:58:55.164Z,11.85
2019-02-10T01:01:35.751Z,16.40
2019-02-10T01:04:16.608Z,13.93
2019-02-10T01:06:57.359Z,11.97
2019-02-10T01:09:37.906Z,12.05
2019-02-10T01:12:18.582Z,7.00
2019-02-10T01:14:59.500Z,16.10
2019-02-10T01:17:40.142Z,15.18
2019-02-10T01:20:21.051Z,16.37
2019-02-10T01:23:01.634Z,11.18
2019-02-10T01:25:42.375Z,15.08
2019-02-10T01:28:22.776Z,12.07
2019-02-10T01:31:03.755Z,16.10
2019-02-10T01:33:44.471Z,15.03
2019-02-10T01:36:25.051Z,6.33
2019-02-10T01:39:07.716Z,14.85
2019-02-10T01:41:48.720Z,16.27
2019-02-10T01:44:29.695Z,9.25
2019-02-10T01:47:10.689Z,16.82
2019-02-10T01:49:51.199Z,12.05
2019-02-10T01:52:31.752Z,9.83
2019-02-10T01:55:12.852Z,11.15
2019-02-10T01:57:53.972Z,16.55
2019-02-10T02:00:34.808Z,16.70
2019-02-10T02:03:15.299Z,19.30
2019-02-10T02:05:55.799Z,10.18
2019-02-10T02:08:36.577Z,12.65
2019-02-10T02:11:17.388Z,9.18
2019-02-10T02:13:57.968Z,10.95
2019-02-10T02:16:38.557Z,20.32
2019-02-10T02:19:19.432Z,14.65
2019-02-10T02:21:59.816Z,10.95
2019-02-10T02:24:40.891Z,7.92
2019-02-10T02:27:21.735Z,23.65
2019-02-10T02:30:02.591Z,10.30
2019-02-10T02:32:43.100Z,10.05
2019-02-10T02:35:24.211Z,12.70
2019-02-10T02:38:04.914Z,12.10
2019-02-10T02:40:45.763Z,18.80
2019-02-10T02:43:26.662Z,20.77
2019-02-10T02:46:07.589Z,18.12
2019-02-10T02:48:48.191Z,12.28
2019-02-10T02:51:28.983Z,12.93
2019-02-10T02:54:10.314Z,10.25
2019-02-10T02:56:51.346Z,15.00
2019-02-10T02:59:32.280Z,8.43
2019-02-10T03:02:12.751Z,19.20
2019-02-10T03:04:53.780Z,13.72
2019-02-10T03:07:34.764Z,17.48
2019-02-10T03:10:15.515Z,14.60
2019-02-10T03:12:56.396Z,17.10
2019-02-10T03:15:37.275Z,18.50
2019-02-10T03:18:17.870Z,11.28
2019-02-10T03:20:58.416Z,13.35
2019-02-10T03:23:38.915Z,11.80
2019-02-10T03:26:19.845Z,21.35
2019-02-10T03:29:00.617Z,14.38
2019-02-10T03:31:41.477Z,12.53
2019-02-10T03:34:21.843Z,13.58
2019-02-10T03:37:02.793Z,19.90
2019-02-10T03:39:43.724Z,11.45
2019-02-10T03:42:24.556Z,16.42
2019-02-10T03:45:05.338Z,12.47
2019-02-10T03:47:45.652Z,17.20
2019-02-10T03:50:26.468Z,16.62
2019-02-10T03:53:06.971Z,16.37
2019-02-10T03:55:48.028Z,8.50
2019-02-10T03:58:28.895Z,14.23
2019-02-10T04:01:09.541Z,17.45
2019-02-10T04:03:50.056Z,14.80
2019-02-10T04:06:30.724Z,13.78
2019-02-10T04:09:11.316Z,11.48
2019-02-10T04:11:52.188Z,10.82
2019-02-10T04:14:32.928Z,12.58
2019-02-10T04:17:13.540Z,8.48
2019-02-10T04:19:53.905Z,11.60
2019-02-10T04:22:34.481Z,8.25
2019-02-10T04:25:15.019Z,18.32
2019-02-10T04:27:55.384Z,11.63
2019-02-10T04:30:36.186Z,13.05
2019-02-10T04:33:16.867Z,18.30
2019-02-10T04:35:57.569Z,10.05
2019-02-10T04:38:37.997Z,21.48
2019-02-10T04:41:18.804Z,11.95
2019-02-10T04:43:59.500Z,22.40
2019-02-10T04:46:43.194Z,16.65
2019-02-10T04:49:24.006Z,9.40
2019-02-10T04:52:04.915Z,11.65
2019-02-10T04:54:45.591Z,13.78
2019-02-10T04:57:26.261Z,9.03
2019-02-10T05:00:06.815Z,20.77
2019-02-10T05:02:47.660Z,17.73
2019-02-10T05:05:28.449Z,10.48
2019-02-10T05:08:09.233Z,10.18
2019-02-10T05:10:49.979Z,10.28
2019-02-10T05:13:30.648Z,11.50
2019-02-10T05:16:11.352Z,17.20
2019-02-10T05:18:52.046Z,14.53
2019-02-10T05:21:32.961Z,9.85
2019-02-10T05:24:13.502Z,13.40
2019-02-10T05:26:54.000Z,10.88
2019-02-10T05:29:34.652Z,12.73
2019-02-10T05:32:15.382Z,18.92
2019-02-10T05:34:56.166Z,8.53
2019-02-10T05:37:36.820Z,6.83
2019-02-10T05:40:17.633Z,19.65
2019-02-10T05:42:58.294Z,14.95
2019-02-10T05:45:38.814Z,11.78
2019-02-10T05:48:19.356Z,10.00
2019-02-10T05:51:00.293Z,20.85
2019-02-10T05:53:41.138Z,10.08
2019-02-10T05:56:21.742Z,14.83
2019-02-10T05:59:02.480Z,9.65
2019-02-10T06:01:43.204Z,10.78
2019-02-10T06:04:23.895Z,20.12
2019-02-10T06:07:04.626Z,9.15
2019-02-10T06:09:45.285Z,14.50
2019-02-10T06:12:26.060Z,7.60
2019-02-10T06:15:06.674Z,6.75
2019-02-10T06:17:47.310Z,7.47
2019-02-10T06:20:27.757Z,16.20
2019-02-10T06:23:08.668Z,14.38
2019-02-10T06:25:49.495Z,6.37
2019-02-10T06:28:30.407Z,8.35
2019-02-10T06:31:11.200Z,13.53
2019-02-10T06:33:51.664Z,9.90
2019-02-10T06:36:32.877Z,10.50
2019-02-10T06:39:13.580Z,9.55
2019-02-10T06:41:54.338Z,11.55
2019-02-10T06:44:35.187Z,10.45
2019-02-10T06:47:16.119Z,5.30
2019-02-10T06:49:56.886Z,8.15
2019-02-10T06:52:37.391Z,8.65
2019-02-10T06:55:18.627Z,8.90
2019-02-10T06:57:59.202Z,9.15
2019-02-10T07:00:44.654Z,9.90
2019-02-10T07:03:25.827Z,9.58
2019-02-10T07:06:07.051Z,7.33
2019-02-10T07:08:48.116Z,6.62
2019-02-10T07:11:28.865Z,5.97
2019-02-10T07:14:09.453Z,7.72
2019-02-10T07:16:50.420Z,15.15
2019-02-10T07:23:00.278Z,6.65
2019-02-10T07:25:41.316Z,6.60
2019-02-10T07:28:21.875Z,7.85
2019-02-10T07:31:02.539Z,9.95
2019-02-10T07:33:43.308Z,3.60
2019-02-10T07:36:23.902Z,8.33
2019-02-10T07:39:05.490Z,6.30
2019-02-10T07:41:45.895Z,6.55
2019-02-10T07:44:26.536Z,10.63
2019-02-10T07:47:07.479Z,5.62
2019-02-10T07:49:48.356Z,10.05
2019-02-10T07:52:29.055Z,12.20
2019-02-10T07:55:09.784Z,3.92
2019-02-10T07:57:50.491Z,5.83
2019-02-10T08:00:31.148Z,3.45
2019-02-10T08:03:11.776Z,10.80
2019-02-10T08:05:52.845Z,8.65
2019-02-10T08:08:33.451Z,5.10
2019-02-10T08:11:14.001Z,6.50
2019-02-10T08:13:54.679Z,7.10
2019-02-10T08:16:35.542Z,5.28
2019-02-10T08:19:15.933Z,3.72
2019-02-10T08:21:56.748Z,4.15
2019-02-10T08:24:38.016Z,4.90
2019-02-10T08:27:19.231Z,9.78
2019-02-10T08:30:00.172Z,3.08
2019-02-10T08:32:42.621Z,2.58
2019-02-10T08:35:23.758Z,3.02
2019-02-10T08:38:04.603Z,7.20
2019-02-10T08:40:45.075Z,5.20
2019-02-10T08:43:26.027Z,3.30
2019-02-10T08:46:06.746Z,4.15
2019-02-10T08:48:47.360Z,5.85
2019-02-10T08:51:28.279Z,5.20
2019-02-10T08:54:09.291Z,5.10
2019-02-10T08:56:50.141Z,1.87
2019-02-10T08:59:30.959Z,1.82
2019-02-10T09:02:11.734Z,2.72
2019-02-10T09:04:52.420Z,1.35
2019-02-10T09:07:33.390Z,1.25
2019-02-10T09:10:13.800Z,2.65
2019-02-10T09:12:54.951Z,2.15
2019-02-10T09:15:35.839Z,3.05
2019-02-10T09:18:16.551Z,2.95
2019-02-10T09:20:57.131Z,6.72
2019-02-10T09:23:37.939Z,1.72
2019-02-10T09:26:18.899Z,1.57
2019-02-10T09:28:59.291Z,1.57
2019-02-10T09:31:39.855Z,2.30
2019-02-10T09:34:20.680Z,3.52
2019-02-10T09:37:01.157Z,2.95
2019-02-10T09:39:41.969Z,3.95
2019-02-10T09:42:22.540Z,3.80
2019-02-10T09:45:03.211Z,3.62
2019-02-10T09:47:43.972Z,1.77
2019-02-10T09:50:24.648Z,1.75
2019-02-10T09:53:05.347Z,2.10
2019-02-10T09:55:45.839Z,2.17
2019-02-10T09:58:26.917Z,3.02
2019-02-10T10:01:08.007Z,1.95
2019-02-10T10:03:48.695Z,1.57
2019-02-10T10:06:29.395Z,3.05
2019-02-10T10:09:10.250Z,1.90
2019-02-10T10:11:50.963Z,2.98
2019-02-10T10:14:32.123Z,3.20
2019-02-10T10:17:12.880Z,2.83
2019-02-10T10:19:54.957Z,1.27
2019-02-10T10:22:35.440Z,1.45
2019-02-10T10:25:16.408Z,3.35
2019-02-10T10:27:57.148Z,4.20
2019-02-10T10:30:37.503Z,1.95
2019-02-10T10:33:18.103Z,1.50
2019-02-10T10:35:58.785Z,1.90
2019-02-10T10:38:39.078Z,1.65
2019-02-10T10:41:19.681Z,1.77
2019-02-10T10:44:00.548Z,1.42
2019-02-10T10:46:41.296Z,1.70
2019-02-10T10:49:22.380Z,2.27
2019-02-10T10:52:03.091Z,2.08
2019-02-10T10:54:44.040Z,2.52
2019-02-10T10:57:25.196Z,6.78
2019-02-10T11:00:06.128Z,2.95
2019-02-10T11:02:47.398Z,2.10
2019-02-10T11:05:28.371Z,1.85
2019-02-10T11:08:09.028Z,1.35
2019-02-10T11:10:49.558Z,1.75
2019-02-10T11:13:30.434Z,1.35
2019-02-10T11:16:11.647Z,3.33
2019-02-10T11:18:52.312Z,2.40
2019-02-10T11:21:32.950Z,2.50
2019-02-10T11:24:13.572Z,1.65
2019-02-10T11:26:54.052Z,2.22
2019-02-10T11:29:34.599Z,1.05
2019-02-10T11:32:15.212Z,3.47
2019-02-10T11:34:56.108Z,1.10
2019-02-10T11:37:36.471Z,1.75
2019-02-10T11:40:17.240Z,1.55
2019-02-10T11:43:00.014Z,1.77
2019-02-10T11:45:41.209Z,1.90
2019-02-10T11:48:22.404Z,2.42
2019-02-10T11:51:03.195Z,1.20
2019-02-10T11:53:43.908Z,1.72
2019-02-10T11:56:24.269Z,1.27
2019-02-10T11:59:05.174Z,2.05
2019-02-10T12:01:45.519Z,1.30
2019-02-10T12:04:26.488Z,1.98
2019-02-10T12:07:07.268Z,1.80
2019-02-10T12:09:51.701Z,1.92
2019-02-10T12:12:31.163Z,1.00
2019-02-10T12:15:12.059Z,3.12
2019-02-10T12:17:52.780Z,4.92
2019-02-10T12:20:33.503Z,2.17
2019-02-10T12:23:13.952Z,1.42
2019-02-10T12:25:55.062Z,1.25
2019-02-10T12:28:35.771Z,1.00
2019-02-10T12:31:16.771Z,2.17
2019-02-10T12:33:57.109Z,1.85
2019-02-10T12:36:37.663Z,1.92
2019-02-10T12:39:18.649Z,0.98
2019-02-10T12:41:59.188Z,3.77
2019-02-10T12:44:39.787Z,1.95
2019-02-10T12:47:20.418Z,1.67
2019-02-10T12:50:02.014Z,2.27
2019-02-10T12:52:42.847Z,1.80
2019-02-10T12:55:23.602Z,4.28
2019-02-10T12:58:04.532Z,2.67
2019-02-10T13:00:45.124Z,2.80
2019-02-10T13:03:25.496Z,3.02
2019-02-10T13:06:06.325Z,1.40
2019-02-10T13:08:47.568Z,2.00
2019-02-10T13:11:28.428Z,1.65
2019-02-10T13:14:09.116Z,3.85
2019-02-10T13:16:49.945Z,4.92
2019-02-10T13:19:30.717Z,2.20
2019-02-10T13:22:11.134Z,1.70
2019-02-10T13:24:52.027Z,2.37
2019-02-10T13:27:32.737Z,2.15
2019-02-10T13:30:13.460Z,3.37
2019-02-10T13:32:54.191Z,2.15
2019-02-10T13:35:35.024Z,2.05
2019-02-10T13:38:15.506Z,2.05
2019-02-10T13:40:56.327Z,3.90
2019-02-10T13:43:36.676Z,3.02
2019-02-10T13:46:17.737Z,1.85
2019-02-10T13:48:58.244Z,3.37
2019-02-10T13:51:41.687Z,2.55
2019-02-10T13:54:22.171Z,1.47
2019-02-10T13:57:03.130Z,1.85
2019-02-10T13:59:43.969Z,2.00
2019-02-10T14:02:24.492Z,3.95
2019-02-10T14:05:05.468Z,1.35
2019-02-10T14:07:46.060Z,1.40
2019-02-10T14:10:26.722Z,2.20
2019-02-10T14:13:07.171Z,2.08
2019-02-10T14:15:47.667Z,1.25
2019-02-10T14:18:28.953Z,5.42
2019-02-10T14:21:09.636Z,1.65
2019-02-10T14:23:50.403Z,2.50
2019-02-10T14:26:31.480Z,1.42
2019-02-10T14:29:12.212Z,1.05
2019-02-10T14:31:53.236Z,1.15
2019-02-10T14:34:33.725Z,1.50
2019-02-10T14:37:14.370Z,1.45
2019-02-10T14:39:54.951Z,2.45
2019-02-10T14:42:35.662Z,1.72
2019-02-10T14:45:16.388Z,1.30
2019-02-10T14:47:56.999Z,1.60
2019-02-10T14:50:37.921Z,1.75
2019-02-10T14:53:18.865Z,2.20
2019-02-10T14:55:59.369Z,5.97
2019-02-10T14:58:43.161Z,2.05
2019-02-10T15:01:22.887Z,1.57
2019-02-10T15:04:03.242Z,1.47
2019-02-10T15:06:43.634Z,1.95
2019-02-10T15:09:24.237Z,1.27
2019-02-10T15:12:05.110Z,4.75
2019-02-10T15:14:46.284Z,2.58
2019-02-10T15:17:27.014Z,2.98
2019-02-10T15:20:07.715Z,2.20
2019-02-10T15:22:48.404Z,2.37
2019-02-10T15:25:29.360Z,2.15
2019-02-10T15:28:09.755Z,3.05
2019-02-10T15:30:50.987Z,4.53
2019-02-10T15:33:31.659Z,1.70
2019-02-10T15:36:12.396Z,1.85
2019-02-10T15:38:52.831Z,2.40
2019-02-10T15:41:33.504Z,2.80
2019-02-10T15:44:13.951Z,2.45
2019-02-10T15:46:54.603Z,2.05
2019-02-10T15:49:34.935Z,2.62
2019-02-10T15:52:16.003Z,3.87
2019-02-10T15:54:56.747Z,2.22
2019-02-10T15:57:37.524Z,3.37
2019-02-10T16:00:18.029Z,2.72
2019-02-10T16:02:58.673Z,1.85
2019-02-10T16:05:39.366Z,6.60
2019-02-10T16:08:20.141Z,1.92
2019-02-10T16:11:00.831Z,2.40
2019-02-10T16:13:41.783Z,1.80
2019-02-10T16:16:22.523Z,3.95
2019-02-10T16:19:03.240Z,1.55
2019-02-10T16:21:43.959Z,1.60
2019-02-10T16:24:25.111Z,3.00
2019-02-10T16:27:06.038Z,2.58
2019-02-10T16:29:46.729Z,1.80
2019-02-10T16:32:27.672Z,1.98
2019-02-10T16:35:08.347Z,2.10
2019-02-10T16:37:49.271Z,2.45
2019-02-10T16:40:30.057Z,2.58
2019-02-10T16:43:10.376Z,2.52
2019-02-10T16:45:50.967Z,2.00
2019-02-10T16:48:32.195Z,1.40
2019-02-10T16:51:13.264Z,2.45
2019-02-10T16:53:54.150Z,2.00
2019-02-10T16:56:34.739Z,1.45
2019-02-10T16:59:15.337Z,1.70
2019-02-10T17:01:55.977Z,2.08
2019-02-10T17:04:36.657Z,2.72
2019-02-10T17:07:17.716Z,2.62
2019-02-10T17:09:58.151Z,2.20
2019-02-10T17:12:39.204Z,1.80
2019-02-10T17:15:19.647Z,3.45
2019-02-10T17:18:00.259Z,1.37
2019-02-10T17:20:40.947Z,4.08
2019-02-10T17:23:21.788Z,3.15
2019-02-10T17:26:02.183Z,1.77
2019-02-10T17:28:42.862Z,2.45
2019-02-10T17:31:23.836Z,1.62
2019-02-10T17:34:04.434Z,2.25
2019-02-10T17:36:45.459Z,2.58
2019-02-10T17:39:26.324Z,1.87
2019-02-10T17:42:07.276Z,1.20
2019-02-10T17:44:48.144Z,1.37
2019-02-10T17:47:28.688Z,1.57
2019-02-10T17:50:09.408Z,1.60
2019-02-10T17:52:50.309Z,3.62
2019-02-10T17:55:31.143Z,1.42
2019-02-10T17:58:12.112Z,1.20
2019-02-10T18:00:53.045Z,3.35
2019-02-10T18:03:33.654Z,1.90
2019-02-10T18:06:17.299Z,4.80
2019-02-10T18:08:58.455Z,2.08
2019-02-10T18:11:39.247Z,1.70
2019-02-10T18:14:21.693Z,1.20
2019-02-10T18:17:04.329Z,2.12
2019-02-10T18:19:46.531Z,2.65
2019-02-10T18:22:29.215Z,1.85
2019-02-10T18:28:37.028Z,1.55
2019-02-10T18:34:29.489Z,2.70
2019-02-10T18:37:14.637Z,1.87
2019-02-10T18:43:22.164Z,1.90
2019-02-10T18:52:32.996Z,0.95
2019-02-10T18:58:54.237Z,2.08
2019-02-10T19:01:57.388Z,1.95
2019-02-10T19:08:13.003Z,0.98
2019-02-10T19:14:28.643Z,1.60
2019-02-10T19:17:35.765Z,2.65
2019-02-10T19:20:42.862Z,1.12
2019-02-10T19:26:48.481Z,1.72
2019-02-10T19:29:30.951Z,2.00
2019-02-10T19:32:13.400Z,1.10
2019-02-10T19:35:13.665Z,1.25
2019-02-10T19:41:06.671Z,1.00
2019-02-10T19:46:43.483Z,1.15
2019-02-10T19:52:20.630Z,1.30
2019-02-10T19:55:03.191Z,0.90
2019-02-10T19:58:03.628Z,1.37
2019-02-10T20:00:45.769Z,1.00
2019-02-10T20:03:47.244Z,1.32
2019-02-10T20:06:30.071Z,0.98
2019-02-10T20:09:29.999Z,1.92
2019-02-10T20:12:15.156Z,1.47
2019-02-10T20:15:00.215Z,1.00
2019-02-10T20:20:56.344Z,1.65
2019-02-10T20:23:38.969Z,1.00
2019-02-10T20:26:21.702Z,1.15
2019-02-10T20:29:07.200Z,3.05
2019-02-10T20:35:00.595Z,1.45
2019-02-10T20:40:36.648Z,1.10
2019-02-10T20:46:32.511Z,6.95
2019-02-10T20:52:09.726Z,2.98
2019-02-10T20:58:05.476Z,0.90
2019-02-10T21:04:10.075Z,0.80
2019-02-10T21:09:53.691Z,1.00
2019-02-10T21:13:00.812Z,0.62
2019-02-10T21:16:07.908Z,0.68
2019-02-10T21:19:15.028Z,1.15
2019-02-10T21:22:22.125Z,1.37
2019-02-10T21:27:59.783Z,1.70
2019-02-10T21:36:41.059Z,1.00
2019-02-10T21:39:23.728Z,3.15
2019-02-10T21:42:06.425Z,0.90
2019-02-10T21:44:49.295Z,0.70
2019-02-10T21:47:35.131Z,0.70
2019-02-10T21:50:15.964Z,1.00
2019-02-10T21:52:56.523Z,0.70
2019-02-10T21:55:37.000Z,0.70
2019-02-10T21:58:17.678Z,1.07
2019-02-10T22:00:58.185Z,0.70
2019-02-10T22:03:39.218Z,0.80
2019-02-10T22:06:19.975Z,2.50
2019-02-10T22:09:00.964Z,0.80
2019-02-10T22:11:41.408Z,2.33
2019-02-10T22:14:22.048Z,1.60
2019-02-10T22:17:02.578Z,1.15
2019-02-10T22:19:43.355Z,0.72
2019-02-10T22:22:23.966Z,2.80
2019-02-10T22:25:04.914Z,1.22
2019-02-10T22:27:45.758Z,1.10
2019-02-10T22:30:26.434Z,0.80
2019-02-10T22:33:06.750Z,1.30
2019-02-10T22:35:47.316Z,0.70
2019-02-10T22:38:28.100Z,0.90
2019-02-10T22:41:09.016Z,0.60
2019-02-10T22:43:49.669Z,0.70
2019-02-10T22:46:30.215Z,0.80
2019-02-10T22:49:11.220Z,0.85
2019-02-10T22:51:51.813Z,0.75
2019-02-10T22:54:32.611Z,1.20
2019-02-10T22:57:13.004Z,0.70
2019-02-10T22:59:53.814Z,2.17
2019-02-10T23:02:34.711Z,4.30
2019-02-10T23:05:15.354Z,0.70
2019-02-10T23:07:55.781Z,4.53
2019-02-10T23:10:36.801Z,0.80
2019-02-10T23:13:17.416Z,0.70
2019-02-10T23:15:58.036Z,2.15
2019-02-10T23:18:38.649Z,0.80
2019-02-10T23:21:19.283Z,1.45
2019-02-10T23:24:00.560Z,0.62
2019-02-10T23:26:40.916Z,0.98
2019-02-10T23:29:21.795Z,0.70
2019-02-10T23:32:02.164Z,0.70
2019-02-10T23:34:42.917Z,0.82
2019-02-10T23:37:23.725Z,0.85
2019-02-10T23:40:04.395Z,0.80
2019-02-10T23:42:44.739Z,0.82
2019-02-10T23:45:25.475Z,0.85
2019-02-10T23:48:06.684Z,0.70
2019-02-10T23:50:47.668Z,0.90
2019-02-10T23:53:28.545Z,2.47
2019-02-10T23:56:09.153Z,0.78
2019-02-10T23:58:50.226Z,0.82
